sensor_id;sensor_type;location;lat;lon;timestamp;pressure;altitude;pressure_sealevel;temperature;humidity
7586;BME280;12459;42.646;23.292;2022-10-16T00:01:28;94240.47;;;10.02;100.00
7586;BME280;12459;42.646;23.292;2022-10-16T00:16:30;94254.25;;;10.07;100.00
7586;BME280;12459;42.646;23.292;2022-10-16T00:31:32;94264.88;;;8.12;100.00
7586;BME280;12459;42.646;23.292;2022-10-16T01:01:35;94267.34;;;8.97;100.00
7586;BME280;12459;42.646;23.292;2022-10-16T01:16:52;94269.84;;;8.65;100.00
7586;BME280;12459;42.646;23.292;2022-10-16T01:32:05;94247.84;;;8.89;100.00
7586;BME280;12459;42.646;23.292;2022-10-16T01:47:10;94260.72;;;9.78;100.00
7586;BME280;12459;42.646;23.292;2022-10-16T02:02:11;94259.50;;;11.03;99.23
7586;BME280;12459;42.646;23.292;2022-10-16T02:17:15;94275.66;;;9.93;100.00
7586;BME280;12459;42.646;23.292;2022-10-16T02:32:19;94289.41;;;8.83;100.00
7586;BME280;12459;42.646;23.292;2022-10-16T02:47:21;94296.47;;;8.07;100.00
7586;BME280;12459;42.646;23.292;2022-10-16T03:02:23;94310.34;;;8.71;100.00
7586;BME280;12459;42.646;23.292;2022-10-16T03:17:24;94309.69;;;10.00;100.00
7586;BME280;12459;42.646;23.292;2022-10-16T03:32:27;94325.81;;;10.24;93.48
7586;BME280;12459;42.646;23.292;2022-10-16T03:47:29;94326.25;;;7.72;100.00
7586;BME280;12459;42.646;23.292;2022-10-16T04:02:31;94307.91;;;7.66;100.00
7586;BME280;12459;42.646;23.292;2022-10-16T04:17:33;94318.16;;;7.61;100.00
7586;BME280;12459;42.646;23.292;2022-10-16T04:32:34;94320.06;;;8.01;100.00
7586;BME280;12459;42.646;23.292;2022-10-16T04:47:36;94332.13;;;9.49;100.00
7586;BME280;12459;42.646;23.292;2022-10-16T05:02:37;94356.06;;;10.93;95.70
7586;BME280;12459;42.646;23.292;2022-10-16T05:17:39;94355.63;;;11.12;94.83
7586;BME280;12459;42.646;23.292;2022-10-16T05:32:48;94367.13;;;11.16;92.44
7586;BME280;12459;42.646;23.292;2022-10-16T05:47:50;94371.19;;;13.36;84.13
7586;BME280;12459;42.646;23.292;2022-10-16T06:02:52;94399.63;;;11.61;86.48
7586;BME280;12459;42.646;23.292;2022-10-16T06:17:54;94413.56;;;14.04;75.93
7586;BME280;12459;42.646;23.292;2022-10-16T06:32:56;94420.63;;;15.06;74.06
7586;BME280;12459;42.646;23.292;2022-10-16T06:47:57;94431.34;;;13.64;76.73
7586;BME280;12459;42.646;23.292;2022-10-16T07:02:59;94450.00;;;14.77;71.90
7586;BME280;12459;42.646;23.292;2022-10-16T07:18:00;94453.56;;;14.70;71.01
7586;BME280;12459;42.646;23.292;2022-10-16T07:33:02;94462.19;;;16.41;60.95
7586;BME280;12459;42.646;23.292;2022-10-16T07:48:03;94462.34;;;15.48;61.52
7586;BME280;12459;42.646;23.292;2022-10-16T08:03:05;94478.34;;;16.25;59.24
7586;BME280;12459;42.646;23.292;2022-10-16T08:18:06;94466.25;;;17.38;55.08
7586;BME280;12459;42.646;23.292;2022-10-16T08:33:08;94465.84;;;18.42;52.90
7586;BME280;12459;42.646;23.292;2022-10-16T09:18:24;94462.84;;;18.11;46.28
7586;BME280;12459;42.646;23.292;2022-10-16T09:33:33;94468.69;;;18.51;43.88
7586;BME280;12459;42.646;23.292;2022-10-16T09:48:37;94452.25;;;18.30;43.36
7586;BME280;12459;42.646;23.292;2022-10-16T10:03:40;94449.03;;;18.47;43.26
7586;BME280;12459;42.646;23.292;2022-10-16T10:18:42;94452.00;;;17.82;44.82
7586;BME280;12459;42.646;23.292;2022-10-16T10:33:48;94439.31;;;19.01;41.85
7586;BME280;12459;42.646;23.292;2022-10-16T11:04:19;94418.78;;;19.12;40.37
7586;BME280;12459;42.646;23.292;2022-10-16T11:34:51;94401.38;;;19.23;37.04
7586;BME280;12459;42.646;23.292;2022-10-16T11:49:57;94402.59;;;19.56;35.97
7586;BME280;12459;42.646;23.292;2022-10-16T12:20:20;94399.56;;;19.54;37.00
7586;BME280;12459;42.646;23.292;2022-10-16T12:35:24;94398.66;;;20.35;35.95
7586;BME280;12459;42.646;23.292;2022-10-16T12:50:37;94401.41;;;19.57;36.19
7586;BME280;12459;42.646;23.292;2022-10-16T13:35:54;94411.13;;;19.80;38.14
7586;BME280;12459;42.646;23.292;2022-10-16T13:51:00;94422.09;;;19.76;39.09
7586;BME280;12459;42.646;23.292;2022-10-16T14:06:02;94431.06;;;18.79;40.09
7586;BME280;12459;42.646;23.292;2022-10-16T14:21:11;94437.22;;;18.12;42.25
7586;BME280;12459;42.646;23.292;2022-10-16T14:36:14;94452.50;;;17.77;42.38
7586;BME280;12459;42.646;23.292;2022-10-16T14:51:17;94461.84;;;16.95;45.49
7586;BME280;12459;42.646;23.292;2022-10-16T15:06:19;94485.19;;;16.49;46.85
7586;BME280;12459;42.646;23.292;2022-10-16T15:21:25;94491.25;;;16.17;47.57
7586;BME280;12459;42.646;23.292;2022-10-16T15:36:28;94502.22;;;15.40;49.79
7586;BME280;12459;42.646;23.292;2022-10-16T15:51:30;94524.69;;;15.10;52.54
7586;BME280;12459;42.646;23.292;2022-10-16T16:06:34;94542.56;;;14.36;53.32
7586;BME280;12459;42.646;23.292;2022-10-16T16:21:38;94546.88;;;13.92;54.97
7586;BME280;12459;42.646;23.292;2022-10-16T16:36:40;94562.22;;;12.95;59.87
7586;BME280;12459;42.646;23.292;2022-10-16T16:51:41;94595.28;;;12.89;62.35
7586;BME280;12459;42.646;23.292;2022-10-16T17:06:43;94615.53;;;11.95;66.58
7586;BME280;12459;42.646;23.292;2022-10-16T17:21:45;94623.16;;;12.29;64.05
7586;BME280;12459;42.646;23.292;2022-10-16T17:36:48;94617.56;;;12.96;59.63
7586;BME280;12459;42.646;23.292;2022-10-16T17:51:50;94627.03;;;13.22;58.41
7586;BME280;12459;42.646;23.292;2022-10-16T18:06:53;94621.34;;;14.17;55.09
7586;BME280;12459;42.646;23.292;2022-10-16T18:21:56;94644.72;;;14.30;53.45
7586;BME280;12459;42.646;23.292;2022-10-16T18:36:58;94661.56;;;14.83;53.35
7586;BME280;12459;42.646;23.292;2022-10-16T18:51:59;94682.00;;;14.39;54.53
7586;BME280;12459;42.646;23.292;2022-10-16T19:07:03;94710.00;;;14.07;55.86
7586;BME280;12459;42.646;23.292;2022-10-16T19:22:05;94719.13;;;14.21;55.38
7586;BME280;12459;42.646;23.292;2022-10-16T19:37:14;94736.72;;;13.84;57.88
7586;BME280;12459;42.646;23.292;2022-10-16T19:52:16;94744.47;;;12.59;64.43
7586;BME280;12459;42.646;23.292;2022-10-16T20:07:17;94757.41;;;11.50;73.37
7586;BME280;12459;42.646;23.292;2022-10-16T20:22:19;94769.94;;;10.08;81.12
7586;BME280;12459;42.646;23.292;2022-10-16T20:37:20;94783.53;;;10.30;80.80
7586;BME280;12459;42.646;23.292;2022-10-16T20:52:22;94785.53;;;9.99;85.63
7586;BME280;12459;42.646;23.292;2022-10-16T21:07:23;94785.50;;;9.25;90.82
7586;BME280;12459;42.646;23.292;2022-10-16T21:22:29;94791.28;;;10.01;88.86
7586;BME280;12459;42.646;23.292;2022-10-16T21:37:31;94796.66;;;9.64;91.73
7586;BME280;12459;42.646;23.292;2022-10-16T21:52:33;94819.34;;;9.14;90.95
7586;BME280;12459;42.646;23.292;2022-10-16T22:16:06;94842.09;;;8.74;98.27
7586;BME280;12459;42.646;23.292;2022-10-16T22:31:08;94856.72;;;8.80;98.16
7586;BME280;12459;42.646;23.292;2022-10-16T22:46:12;94863.50;;;8.74;97.63
7586;BME280;12459;42.646;23.292;2022-10-16T23:01:22;94872.19;;;8.45;100.00
7586;BME280;12459;42.646;23.292;2022-10-16T23:16:23;94875.94;;;8.40;100.00
7586;BME280;12459;42.646;23.292;2022-10-16T23:31:26;94873.34;;;9.23;96.31
7586;BME280;12459;42.646;23.292;2022-10-16T23:46:27;94888.84;;;7.96;100.00
